Alisios — HKJF5 — position and weather

sailwx.info

Track history (hours):
 
Tides and Currents Weather Stations Pressure Air Temp Water Temp Dewpoint Dewpoint Depression Visibility Wind Speed Wind Dir Waves Ship Positions

Alisios

Last reported at 2018-Apr-18 23:20 UTC. Time now 2018-Apr-21 22:33 UTC.
Position N 10°24' W 075°32'.

Length 30 m; draft 4.5 m.

Type: Tug. MMSI: 730151136.

Date/timePositionNaut miles runAvg speedWind from/ knotsBaromVisibWave heightAir tempDewpointWater temp
2018-Apr-18 23:20N 10°24' W 075°32'1 1.9
2018-Apr-18 23:00N 10°24' W 075°31'0 0.0
2018-Apr-18 22:29N 10°24' W 075°31'0 0.0
2018-Apr-18 22:00N 10°24' W 075°31'0 0.0
2018-Apr-18 21:30N 10°24' W 075°31'0 0.0
2018-Apr-18 21:00N 10°24' W 075°31'0 0.0
2018-Apr-18 20:30N 10°24' W 075°31'0 0.0
2018-Apr-18 20:00N 10°24' W 075°31'0 0.0
2018-Apr-18 19:30N 10°24' W 075°31'0 0.0
2018-Apr-18 19:00N 10°24' W 075°31'0 0.0
2018-Apr-18 18:30N 10°24' W 075°31'0 0.0
2018-Apr-18 18:00N 10°24' W 075°31'0 0.0
2018-Apr-18 17:30N 10°24' W 075°31'0 0.3
2018-Apr-18 17:00N 10°24' W 075°32'1 1.7
2018-Apr-18 16:30N 10°24' W 075°32'2 3.1
2018-Apr-18 15:59N 10°23' W 075°32'4 8.1
2018-Apr-18 15:30N 10°19' W 075°31'3 5.6
2018-Apr-18 15:00N 10°22' W 075°32'3 5.1
2018-Apr-18 14:30N 10°24' W 075°32'1 1.0
2018-Apr-18 14:00N 10°24' W 075°32'0 0.8
2018-Apr-18 13:30N 10°24' W 075°32'0 0.0
2018-Apr-18 13:00N 10°24' W 075°32'0 0.0
2018-Apr-18 12:29N 10°24' W 075°32'0 0.0
2018-Apr-18 12:00N 10°24' W 075°32'0 0.8
2018-Apr-18 11:30N 10°24' W 075°32'0 0.4
2018-Apr-18 11:00N 10°24' W 075°32'2 3.6
2018-Apr-18 10:30N 10°23' W 075°31'0 0.0
2018-Apr-18 10:00N 10°23' W 075°31'0 0.0
2018-Apr-18 09:30N 10°23' W 075°31'0 0.7
2018-Apr-18 09:00N 10°23' W 075°31'1 2.7
2018-Apr-18 08:30N 10°23' W 075°32'2 3.4
2018-Apr-18 08:00N 10°24' W 075°32'0 0.0
2018-Apr-18 07:30N 10°24' W 075°32'0 0.0
2018-Apr-18 06:58N 10°24' W 075°32'0 0.0
2018-Apr-18 06:30N 10°24' W 075°32'0 0.0
2018-Apr-18 06:00N 10°24' W 075°32'0 0.0
2018-Apr-18 05:30N 10°24' W 075°32'0 0.0
2018-Apr-18 05:01N 10°24' W 075°32'0 0.0
2018-Apr-18 04:30N 10°24' W 075°32'0 0.0
2018-Apr-18 04:00N 10°24' W 075°32'0 0.0
2018-Apr-18 03:30N 10°24' W 075°32'0 0.0
2018-Apr-18 03:00N 10°24' W 075°32'0 0.0
2018-Apr-18 02:30N 10°24' W 075°32'0 0.0
2018-Apr-18 02:00N 10°24' W 075°32'0 0.8
2018-Apr-18 01:30N 10°24' W 075°32'0 0.7
2018-Apr-18 01:00N 10°24' W 075°32'0 0.5
2018-Apr-18 00:26N 10°24' W 075°32'0 0.0
2018-Apr-17 23:59N 10°24' W 075°32'0 0.0
2018-Apr-17 23:29N 10°24' W 075°32'0 0.0
2018-Apr-17 23:00N 10°24' W 075°32'0 0.5
2018-Apr-17 22:30N 10°24' W 075°32'0 0.8
2018-Apr-17 21:59N 10°24' W 075°32'0 1.0
2018-Apr-17 21:30N 10°24' W 075°32'0 0.0
2018-Apr-17 21:00N 10°24' W 075°32'0 0.0
2018-Apr-17 20:30N 10°24' W 075°32'0 0.0
2018-Apr-17 20:00N 10°24' W 075°32'1 1.1
2018-Apr-17 19:29N 10°24' W 075°32'4 7.4
2018-Apr-17 19:00N 10°21' W 075°31'0 0.0
2018-Apr-17 18:30N 10°21' W 075°31'0 0.4
2018-Apr-17 17:59N 10°20' W 075°31'1 2.4
2018-Apr-17 17:30N 10°20' W 075°32'2 3.6
2018-Apr-17 17:00N 10°21' W 075°31'2 3.4
2018-Apr-17 16:30N 10°23' W 075°31'0 0.0
2018-Apr-17 16:00N 10°23' W 075°31'0 0.3
2018-Apr-17 15:30N 10°23' W 075°31'2 4.3
2018-Apr-17 15:00N 10°21' W 075°31'2 3.6
2018-Apr-17 14:30N 10°19' W 075°31'0 1.0
2018-Apr-17 14:00N 10°19' W 075°31'0 0.0
2018-Apr-17 13:27N 10°19' W 075°31'0 0.0
2018-Apr-17 13:00N 10°19' W 075°31'0 0.0
2018-Apr-17 12:30N 10°19' W 075°31'0 0.0
2018-Apr-17 12:01N 10°19' W 075°31'0 0.0
2018-Apr-17 11:30N 10°19' W 075°31'1 1.1
2018-Apr-17 11:00N 10°19' W 075°31'1 1.1
2018-Apr-17 10:31N 10°19' W 075°31'2 3.1
2018-Apr-17 10:00N 10°20' W 075°31'0 0.0
2018-Apr-17 09:30N 10°20' W 075°31'0 0.4
2018-Apr-17 09:00N 10°21' W 075°31'2 4.4
2018-Apr-17 08:28N 10°23' W 075°31'0 0.0
2018-Apr-17 07:58N 10°23' W 075°31'0 0.0
2018-Apr-17 07:28N 10°23' W 075°31'0 0.0
2018-Apr-17 07:00N 10°23' W 075°31'0 0.0
2018-Apr-17 06:30N 10°23' W 075°31'0 0.0
2018-Apr-17 05:59N 10°23' W 075°31'0 0.0
2018-Apr-17 05:30N 10°23' W 075°31'0 0.0
2018-Apr-17 05:00N 10°23' W 075°31'0 0.0
2018-Apr-17 04:30N 10°23' W 075°31'0 0.0
2018-Apr-17 04:00N 10°23' W 075°31'0 0.0
2018-Apr-17 03:30N 10°23' W 075°31'0 0.0
2018-Apr-17 03:00N 10°23' W 075°31'0 0.0
2018-Apr-17 02:27N 10°23' W 075°31'0 0.0
2018-Apr-17 01:58N 10°23' W 075°31'0 0.0
2018-Apr-17 01:30N 10°23' W 075°31'0 0.0
2018-Apr-17 01:00N 10°23' W 075°31'0 0.0
2018-Apr-17 00:28N 10°23' W 075°31'0 0.0
2018-Apr-17 00:00N 10°23' W 075°31'0 0.0
2018-Apr-16 23:30N 10°23' W 075°31'0 0.0
2018-Apr-16 23:00N 10°23' W 075°31'0 0.0
2018-Apr-16 22:30N 10°23' W 075°31'0 0.0
2018-Apr-16 21:59N 10°23' W 075°31'0 0.0
2018-Apr-16 21:30N 10°23' W 075°31'0 0.0
2018-Apr-16 21:00N 10°23' W 075°31'0 0.0
2018-Apr-16 20:30N 10°23' W 075°31'0 0.0
2018-Apr-16 19:59N 10°23' W 075°31'0 0.3
2018-Apr-16 19:30N 10°23' W 075°31'1 1.9
2018-Apr-16 19:00N 10°22' W 075°32'1 1.8
2018-Apr-16 18:29N 10°23' W 075°31'0 0.0
2018-Apr-16 17:59N 10°23' W 075°31'0 0.3
2018-Apr-16 17:30N 10°23' W 075°31'0 0.3
2018-Apr-16 17:00N 10°23' W 075°31'0 0.0
2018-Apr-16 16:28N 10°23' W 075°31'0 0.0
2018-Apr-16 16:00N 10°23' W 075°31'0 0.0
2018-Apr-16 15:30N 10°23' W 075°31'0 0.0
2018-Apr-16 15:00N 10°23' W 075°31'0 0.0
2018-Apr-16 14:29N 10°23' W 075°31'0 0.0
2018-Apr-16 14:00N 10°23' W 075°31'0 0.0
2018-Apr-16 13:30N 10°23' W 075°31'0 0.0
2018-Apr-16 12:59N 10°23' W 075°31'0 0.0
2018-Apr-16 12:30N 10°23' W 075°31'0 0.0
2018-Apr-16 12:00N 10°23' W 075°31'4 7.5
2018-Apr-16 11:29N 10°19' W 075°31'0 0.0
2018-Apr-16 11:00N 10°19' W 075°31'0 0.8
2018-Apr-16 10:30N 10°19' W 075°31'1 1.6
2018-Apr-16 10:00N 10°20' W 075°31'3 5.9
2018-Apr-16 09:29N 10°23' W 075°31'0 0.0
2018-Apr-16 09:00N 10°23' W 075°31'0 0.0
2018-Apr-16 08:30N 10°23' W 075°31'0 0.0
2018-Apr-16 08:00N 10°23' W 075°31'0 0.0
2018-Apr-16 07:30N 10°23' W 075°31'0 0.0
2018-Apr-16 07:00N 10°23' W 075°31'0 0.0
2018-Apr-16 06:30N 10°23' W 075°31'0 0.4
2018-Apr-16 06:00N 10°23' W 075°31'0 0.0
2018-Apr-16 05:30N 10°23' W 075°31'0 0.0
2018-Apr-16 05:00N 10°23' W 075°31'2 3.8
2018-Apr-16 04:30N 10°24' W 075°32'1 1.7
2018-Apr-16 04:00N 10°24' W 075°31'1 2.1
2018-Apr-16 03:30N 10°23' W 075°32'2 3.3
2018-Apr-16 03:00N 10°23' W 075°31'0 0.4
2018-Apr-16 02:29N 10°23' W 075°31'0 0.5
2018-Apr-16 02:00N 10°23' W 075°31'0 0.0
2018-Apr-16 01:30N 10°23' W 075°31'0 0.0
2018-Apr-16 00:58N 10°23' W 075°31'0 0.0
2018-Apr-16 00:30N 10°23' W 075°31'0 0.0
2018-Apr-15 23:59N 10°23' W 075°31'0 0.1
2018-Apr-15 23:30N 10°23' W 075°31'0 0.0
2018-Apr-15 23:00N 10°23' W 075°31'0 0.5
2018-Apr-15 22:28N 10°23' W 075°31'0 0.5
2018-Apr-15 22:00N 10°23' W 075°31'0 0.0
2018-Apr-15 21:30N 10°23' W 075°31'0 0.0
2018-Apr-15 21:00N 10°23' W 075°31'0 0.0
2018-Apr-15 20:23N 10°23' W 075°31'0 0.0
2018-Apr-15 19:59N 10°23' W 075°31'1 2.0
2018-Apr-15 19:30N 10°22' W 075°31'2 3.2
2018-Apr-15 18:59N 10°21' W 075°31'0 0.2
2018-Apr-15 18:30N 10°21' W 075°31'1 1.4
2018-Apr-15 18:00N 10°20' W 075°31'1 1.5
2018-Apr-15 17:29N 10°21' W 075°31'0 0.3
2018-Apr-15 16:59N 10°21' W 075°31'0 1.0
2018-Apr-15 16:30N 10°20' W 075°31'0 0.0
2018-Apr-15 16:00N 10°20' W 075°31'2 4.7
2018-Apr-15 15:29N 10°22' W 075°31'0 0.8
2018-Apr-15 14:59N 10°23' W 075°31'1 1.1
2018-Apr-15 14:30N 10°23' W 075°31'0 0.0
2018-Apr-15 14:00N 10°23' W 075°31'0 0.0
2018-Apr-15 13:30N 10°23' W 075°31'0 0.0
2018-Apr-15 13:00N 10°23' W 075°31'0 0.0
2018-Apr-15 12:30N 10°23' W 075°31'0 0.0
2018-Apr-15 11:59N 10°23' W 075°31'0 0.3
2018-Apr-15 11:30N 10°23' W 075°31'1 1.2
2018-Apr-15 11:00N 10°22' W 075°31'0 0.4
2018-Apr-15 10:30N 10°23' W 075°31'0 0.0
2018-Apr-15 10:00N 10°23' W 075°31'0 0.0
2018-Apr-15 09:30N 10°23' W 075°31'0 0.0
2018-Apr-15 09:00N 10°23' W 075°31'0 0.0
2018-Apr-15 08:30N 10°23' W 075°31'0 0.0
2018-Apr-15 08:00N 10°23' W 075°31'0 0.0
2018-Apr-15 07:30N 10°23' W 075°31'0 0.0
2018-Apr-15 07:00N 10°23' W 075°31'0 0.0
2018-Apr-15 06:30N 10°23' W 075°31'0 0.0
2018-Apr-15 06:00N 10°23' W 075°31'0 0.0
2018-Apr-15 05:31N 10°23' W 075°31'0 0.0
2018-Apr-15 05:00N 10°23' W 075°31'0 0.0
2018-Apr-15 04:30N 10°23' W 075°31'0 0.0
2018-Apr-15 04:00N 10°23' W 075°31'0 0.0
2018-Apr-15 03:30N 10°23' W 075°31'0 0.0
2018-Apr-15 03:00N 10°23' W 075°31'0 0.0
2018-Apr-15 02:30N 10°23' W 075°31'0 0.0
2018-Apr-15 01:59N 10°23' W 075°31'1 1.9
2018-Apr-15 01:31N 10°22' W 075°31'2 3.0
2018-Apr-15 01:00N 10°20' W 075°31'2 4.7
2018-Apr-15 00:30N 10°23' W 075°31'0 0.7
2018-Apr-15 00:00N 10°23' W 075°31'0 0.0
2018-Apr-14 23:29N 10°23' W 075°31'0 0.0
2018-Apr-14 23:00N 10°23' W 075°31'0 0.0
2018-Apr-14 22:30N 10°23' W 075°31'0 0.0
2018-Apr-14 21:59N 10°23' W 075°31'0 0.0
2018-Apr-14 21:30N 10°23' W 075°31'0 0.0
2018-Apr-14 21:00N 10°23' W 075°31'0 0.0
2018-Apr-14 20:30N 10°23' W 075°31'2 3.6
2018-Apr-14 20:00N 10°24' W 075°32'0 0.6
2018-Apr-14 19:30N 10°24' W 075°32'0 0.6
2018-Apr-14 18:58N 10°24' W 075°32'3 5.1
2018-Apr-14 18:28N 10°22' W 075°31'1 2.9
2018-Apr-14 18:00N 10°21' W 075°31'0 0.0
2018-Apr-14 17:30N 10°21' W 075°31'0 0.0
2018-Apr-14 17:00N 10°21' W 075°31'0 0.8
2018-Apr-14 16:30N 10°20' W 075°31'1 2.0
2018-Apr-14 16:00N 10°21' W 075°31'3 6.8
2018-Apr-14 15:30N 10°24' W 075°33'0 0.0
2018-Apr-14 15:00N 10°24' W 075°33'0 0.0
2018-Apr-14 14:30N 10°24' W 075°33'0 0.0
2018-Apr-14 13:59N 10°24' W 075°33'0 0.0
2018-Apr-14 13:04N 10°24' W 075°33'2 6.0
2018-Apr-14 12:45N 10°23' W 075°32'1 4.9
2018-Apr-14 12:30N 10°23' W 075°31'0 0.2
2018-Apr-14 12:00N 10°22' W 075°31'0 1.0
2018-Apr-14 11:31N 10°23' W 075°31'0 0.0
2018-Apr-14 11:00N 10°23' W 075°31'0 0.0
2018-Apr-14 10:30N 10°23' W 075°31'0 0.0
2018-Apr-14 10:00N 10°23' W 075°31'0 0.7
2018-Apr-14 09:30N 10°23' W 075°31'1 1.4
2018-Apr-14 09:00N 10°22' W 075°31'2 4.0
2018-Apr-14 08:30N 10°24' W 075°32'0 0.6
2018-Apr-14 07:59N 10°24' W 075°32'0 0.0
2018-Apr-14 07:30N 10°24' W 075°32'0 0.0
2018-Apr-14 07:00N 10°24' W 075°32'0 0.0
2018-Apr-14 06:30N 10°24' W 075°32'0 0.0
2018-Apr-14 05:59N 10°24' W 075°32'0 0.4
2018-Apr-14 05:30N 10°24' W 075°32'0 0.6
2018-Apr-14 05:00N 10°24' W 075°32'0 0.8
2018-Apr-14 04:30N 10°24' W 075°33'0 0.0
2018-Apr-14 04:00N 10°24' W 075°33'0 0.0
2018-Apr-14 03:30N 10°24' W 075°33'0 0.0
2018-Apr-14 03:00N 10°24' W 075°33'0 0.0
2018-Apr-14 02:31N 10°24' W 075°33'0 0.0
2018-Apr-14 01:59N 10°24' W 075°33'0 0.0
2018-Apr-14 01:30N 10°24' W 075°33'0 0.0
2018-Apr-14 01:00N 10°24' W 075°33'0 0.0
2018-Apr-14 00:30N 10°24' W 075°33'1 0.2
2018-Apr-13 21:07N 10°24' W 075°32'0 1.4
2018-Apr-13 20:59N 10°24' W 075°32'1 0.0
2018-Apr-13 08:43N 10°24' W 075°33'0 0.0
2018-Apr-13 08:30N 10°24' W 075°33'0 0.0
2018-Apr-13 08:00N 10°24' W 075°33'0 0.0
2018-Apr-13 07:30N 10°24' W 075°33'0 0.0
2018-Apr-13 07:00N 10°24' W 075°33'0 0.0
2018-Apr-13 06:29N 10°24' W 075°33'0 0.0
2018-Apr-13 06:00N 10°24' W 075°33'1 0.0
2018-Apr-11 18:05N 10°24' W 075°32'0 0.7
2018-Apr-11 17:39N 10°24' W 075°32'1 0.3
2018-Apr-11 14:29N 10°24' W 075°33'1 0.7
2018-Apr-11 13:36N 10°24' W 075°32'0 0.0
2018-Apr-11 13:05N 10°24' W 075°32'0 0.0
2018-Apr-11 13:00N 10°24' W 075°32'0 0.0
2018-Apr-11 12:30N 10°24' W 075°32'0 0.0
2018-Apr-11 11:59N 10°24' W 075°32'0 0.9
2018-Apr-11 11:29N 10°24' W 075°32'2 4.0
2018-Apr-11 11:00N 10°23' W 075°31'1 1.1
2018-Apr-11 10:30N 10°22' W 075°31'1 1.3
2018-Apr-11 10:00N 10°23' W 075°31'0 0.0
2018-Apr-11 09:19N 10°23' W 075°31'0 0.1
2018-Apr-11 08:59N 10°23' W 075°31'0 0.0
2018-Apr-11 08:31N 10°23' W 075°31'0 0.0
2018-Apr-11 07:58N 10°23' W 075°31'0 0.0
2018-Apr-11 07:30N 10°23' W 075°31'3 5.6
2018-Apr-11 07:01N 10°20' W 075°31'1 2.7
2018-Apr-11 06:30N 10°19' W 075°31'0 0.5
2018-Apr-11 06:00N 10°19' W 075°31'0 0.0
2018-Apr-11 05:20N 10°19' W 075°31'0 0.0
2018-Apr-11 05:00N 10°19' W 075°31'0 0.5
2018-Apr-11 04:30N 10°19' W 075°31'0 0.0
2018-Apr-11 04:01N 10°19' W 075°31'0 0.0
2018-Apr-11 03:30N 10°19' W 075°31'0 0.9
2018-Apr-11 03:00N 10°19' W 075°31'0 0.1
2018-Apr-11 02:30N 10°19' W 075°31'2 3.8
2018-Apr-11 02:00N 10°21' W 075°31'2 3.9
2018-Apr-11 01:30N 10°23' W 075°31'0 0.6
2018-Apr-11 00:58N 10°23' W 075°31'0 0.7
2018-Apr-11 00:30N 10°23' W 075°31'0 0.0
2018-Apr-10 23:59N 10°23' W 075°31'0 0.1
2018-Apr-10 23:29N 10°23' W 075°31'0 0.0
2018-Apr-10 22:59N 10°23' W 075°31'0 0.0
2018-Apr-10 22:29N 10°23' W 075°31'0 0.0
2018-Apr-10 22:00N 10°23' W 075°31'0 0.0
2018-Apr-10 21:30N 10°23' W 075°31'0 0.0
2018-Apr-10 20:59N 10°23' W 075°31'0 0.0
2018-Apr-10 20:30N 10°23' W 075°31'0 0.0
2018-Apr-10 19:59N 10°23' W 075°31'0 0.0
2018-Apr-10 19:30N 10°23' W 075°31'0 0.0
2018-Apr-10 19:00N 10°23' W 075°31'0 0.0
2018-Apr-10 18:28N 10°23' W 075°31'0 0.0
2018-Apr-10 17:59N 10°23' W 075°31'0 0.0
2018-Apr-10 17:30N 10°23' W 075°31'0 0.0
2018-Apr-10 17:00N 10°23' W 075°31'0 0.0
2018-Apr-10 16:30N 10°23' W 075°31'0 0.0
2018-Apr-10 16:00N 10°23' W 075°31'0 0.0
2018-Apr-10 15:29N 10°23' W 075°31'0 0.0
2018-Apr-10 15:00N 10°23' W 075°31'0 0.0
2018-Apr-10 14:30N 10°23' W 075°31'0 0.5
2018-Apr-10 13:59N 10°23' W 075°31'1 1.6
2018-Apr-10 13:30N 10°23' W 075°32'1 2.7
2018-Apr-10 12:59N 10°21' W 075°32'4 7.5
2018-Apr-10 12:28N 10°18' W 075°33'1 1.8
2018-Apr-10 12:00N 10°17' W 075°34'0 0.4
2018-Apr-10 11:30N 10°17' W 075°33'1 2.9
2018-Apr-10 11:00N 10°18' W 075°33'2 4.2
2018-Apr-10 10:30N 10°19' W 075°35'2 4.0
2018-Apr-10 09:59N 10°19' W 075°33'1 2.8
2018-Apr-10 09:29N 10°20' W 075°32'4 7.7
2018-Apr-10 09:00N 10°24' W 075°32'1 1.6
2018-Apr-10 08:30N 10°24' W 075°32'0 0.0
2018-Apr-10 08:00N 10°24' W 075°32'0 0.0
2018-Apr-10 07:30N 10°24' W 075°32'0 0.0
2018-Apr-10 07:00N 10°24' W 075°32'4 7.5
2018-Apr-10 06:30N 10°21' W 075°31'0 0.2
2018-Apr-10 06:00N 10°21' W 075°31'2 4.7
2018-Apr-10 05:30N 10°23' W 075°31'0 0.0
2018-Apr-10 05:00N 10°23' W 075°31'0 0.0
2018-Apr-10 04:30N 10°23' W 075°31'0 0.0
2018-Apr-10 04:00N 10°23' W 075°31'0 0.0
2018-Apr-10 03:29N 10°23' W 075°31'0 0.0
2018-Apr-10 02:58N 10°23' W 075°31'0 0.0
2018-Apr-10 02:28N 10°23' W 075°31'0 0.0
2018-Apr-10 02:00N 10°23' W 075°31'0 0.0
2018-Apr-10 01:30N 10°23' W 075°31'0 0.0
2018-Apr-10 01:00N 10°23' W 075°31'0 0.0
2018-Apr-10 00:30N 10°23' W 075°31'0 0.0
2018-Apr-10 00:00N 10°23' W 075°31'0 0.0
2018-Apr-09 23:30N 10°23' W 075°31'0 0.0
2018-Apr-09 23:00N 10°23' W 075°31'0 0.0
2018-Apr-09 22:30N 10°23' W 075°31'0 0.0
2018-Apr-09 22:00N 10°23' W 075°31'0 0.0
2018-Apr-09 21:28N 10°23' W 075°31'0 0.0
2018-Apr-09 21:00N 10°23' W 075°31'0 0.0
2018-Apr-09 20:29N 10°23' W 075°31'0 0.0
2018-Apr-09 19:59N 10°23' W 075°31'0 0.0
2018-Apr-09 19:29N 10°23' W 075°31'0 1.0
2018-Apr-09 19:00N 10°22' W 075°31'1 1.5
2018-Apr-09 18:30N 10°22' W 075°31'0 0.2
2018-Apr-09 18:00N 10°23' W 075°31'0 0.1
2018-Apr-09 17:30N 10°23' W 075°31'1 1.4
2018-Apr-09 17:00N 10°22' W 075°31'0 0.0
2018-Apr-09 16:30N 10°22' W 075°31'0 0.0
2018-Apr-09 16:00N 10°22' W 075°31'1 2.3
2018-Apr-09 15:29N 10°23' W 075°32'2 3.6
2018-Apr-09 15:00N 10°24' W 075°32'0 0.0
2018-Apr-09 14:30N 10°24' W 075°32'0 0.4
2018-Apr-09 14:00N 10°24' W 075°32'2 3.5
2018-Apr-09 13:30N 10°23' W 075°32'1 2.0
2018-Apr-09 12:59N 10°23' W 075°31'0 0.0
2018-Apr-09 12:30N 10°23' W 075°31'0 0.0
2018-Apr-09 12:00N 10°23' W 075°31'0 0.0
2018-Apr-09 11:30N 10°23' W 075°31'0 0.0
2018-Apr-09 11:00N 10°23' W 075°31'0 0.0
2018-Apr-09 10:29N 10°23' W 075°31'0 0.0
2018-Apr-09 09:59N 10°23' W 075°31'0 0.0
2018-Apr-09 09:30N 10°23' W 075°31'0 0.0
2018-Apr-09 09:00N 10°23' W 075°31'0 0.0
2018-Apr-09 08:29N 10°23' W 075°31'0 0.0
2018-Apr-09 08:00N 10°23' W 075°31'0 0.0
2018-Apr-09 07:30N 10°23' W 075°31'0 0.0
2018-Apr-09 07:00N 10°23' W 075°31'0 0.0
2018-Apr-09 06:30N 10°23' W 075°31'2 3.8
2018-Apr-09 06:00N 10°21' W 075°31'1 1.4
2018-Apr-09 05:30N 10°21' W 075°31'0 0.6
2018-Apr-09 05:00N 10°20' W 075°31'0 0.3
2018-Apr-09 04:10N 10°20' W 075°31'0 0.0
2018-Apr-09 04:00N 10°20' W 075°31'0 0.0
2018-Apr-09 03:30N 10°20' W 075°31'0 0.0
2018-Apr-09 03:00N 10°20' W 075°31'0 0.0
2018-Apr-09 02:30N 10°20' W 075°31'2 3.8
2018-Apr-09 02:00N 10°18' W 075°31'0 0.0
2018-Apr-09 01:30N 10°18' W 075°31'1 1.5
2018-Apr-09 00:59N 10°19' W 075°31'4 7.8
2018-Apr-09 00:29N 10°23' W 075°31'  
Track history (hours):
 
Tides and Currents Weather Stations Pressure Air Temp Water Temp Dewpoint Dewpoint Depression Visibility Wind Speed Wind Dir Waves Ship Positions

Alisios

Last reported at 2018-Apr-18 23:20 UTC. Time now 2018-Apr-21 22:33 UTC.
Position N 10°24' W 075°32'.

Length 30 m; draft 4.5 m.

Type: Tug. MMSI: 730151136.

Date/timePositionNaut miles runAvg speedWind from/ knotsBaromVisibWave heightAir tempDewpointWater temp
2018-Apr-18 23:20N 10°24' W 075°32'1 1.9
2018-Apr-18 23:00N 10°24' W 075°31'0 0.0
2018-Apr-18 22:29N 10°24' W 075°31'0 0.0
2018-Apr-18 22:00N 10°24' W 075°31'0 0.0
2018-Apr-18 21:30N 10°24' W 075°31'0 0.0
2018-Apr-18 21:00N 10°24' W 075°31'0 0.0
2018-Apr-18 20:30N 10°24' W 075°31'0 0.0
2018-Apr-18 20:00N 10°24' W 075°31'0 0.0
2018-Apr-18 19:30N 10°24' W 075°31'0 0.0
2018-Apr-18 19:00N 10°24' W 075°31'0 0.0
2018-Apr-18 18:30N 10°24' W 075°31'0 0.0
2018-Apr-18 18:00N 10°24' W 075°31'0 0.0
2018-Apr-18 17:30N 10°24' W 075°31'0 0.3
2018-Apr-18 17:00N 10°24' W 075°32'1 1.7
2018-Apr-18 16:30N 10°24' W 075°32'2 3.1
2018-Apr-18 15:59N 10°23' W 075°32'4 8.1
2018-Apr-18 15:30N 10°19' W 075°31'3 5.6
2018-Apr-18 15:00N 10°22' W 075°32'3 5.1
2018-Apr-18 14:30N 10°24' W 075°32'1 1.0
2018-Apr-18 14:00N 10°24' W 075°32'0 0.8
2018-Apr-18 13:30N 10°24' W 075°32'0 0.0
2018-Apr-18 13:00N 10°24' W 075°32'0 0.0
2018-Apr-18 12:29N 10°24' W 075°32'0 0.0
2018-Apr-18 12:00N 10°24' W 075°32'0 0.8
2018-Apr-18 11:30N 10°24' W 075°32'0 0.4
2018-Apr-18 11:00N 10°24' W 075°32'2 3.6
2018-Apr-18 10:30N 10°23' W 075°31'0 0.0
2018-Apr-18 10:00N 10°23' W 075°31'0 0.0
2018-Apr-18 09:30N 10°23' W 075°31'0 0.7
2018-Apr-18 09:00N 10°23' W 075°31'1 2.7
2018-Apr-18 08:30N 10°23' W 075°32'2 3.4
2018-Apr-18 08:00N 10°24' W 075°32'0 0.0
2018-Apr-18 07:30N 10°24' W 075°32'0 0.0
2018-Apr-18 06:58N 10°24' W 075°32'0 0.0
2018-Apr-18 06:30N 10°24' W 075°32'0 0.0
2018-Apr-18 06:00N 10°24' W 075°32'0 0.0
2018-Apr-18 05:30N 10°24' W 075°32'0 0.0
2018-Apr-18 05:01N 10°24' W 075°32'0 0.0
2018-Apr-18 04:30N 10°24' W 075°32'0 0.0
2018-Apr-18 04:00N 10°24' W 075°32'0 0.0
2018-Apr-18 03:30N 10°24' W 075°32'0 0.0
2018-Apr-18 03:00N 10°24' W 075°32'0 0.0
2018-Apr-18 02:30N 10°24' W 075°32'0 0.0
2018-Apr-18 02:00N 10°24' W 075°32'0 0.8
2018-Apr-18 01:30N 10°24' W 075°32'0 0.7
2018-Apr-18 01:00N 10°24' W 075°32'0 0.5
2018-Apr-18 00:26N 10°24' W 075°32'0 0.0
2018-Apr-17 23:59N 10°24' W 075°32'0 0.0
2018-Apr-17 23:29N 10°24' W 075°32'0 0.0
2018-Apr-17 23:00N 10°24' W 075°32'0 0.5
2018-Apr-17 22:30N 10°24' W 075°32'0 0.8
2018-Apr-17 21:59N 10°24' W 075°32'0 1.0
2018-Apr-17 21:30N 10°24' W 075°32'0 0.0
2018-Apr-17 21:00N 10°24' W 075°32'0 0.0
2018-Apr-17 20:30N 10°24' W 075°32'0 0.0
2018-Apr-17 20:00N 10°24' W 075°32'1 1.1
2018-Apr-17 19:29N 10°24' W 075°32'4 7.4
2018-Apr-17 19:00N 10°21' W 075°31'0 0.0
2018-Apr-17 18:30N 10°21' W 075°31'0 0.4
2018-Apr-17 17:59N 10°20' W 075°31'1 2.4
2018-Apr-17 17:30N 10°20' W 075°32'2 3.6
2018-Apr-17 17:00N 10°21' W 075°31'2 3.4
2018-Apr-17 16:30N 10°23' W 075°31'0 0.0
2018-Apr-17 16:00N 10°23' W 075°31'0 0.3
2018-Apr-17 15:30N 10°23' W 075°31'2 4.3
2018-Apr-17 15:00N 10°21' W 075°31'2 3.6
2018-Apr-17 14:30N 10°19' W 075°31'0 1.0
2018-Apr-17 14:00N 10°19' W 075°31'0 0.0
2018-Apr-17 13:27N 10°19' W 075°31'0 0.0
2018-Apr-17 13:00N 10°19' W 075°31'0 0.0
2018-Apr-17 12:30N 10°19' W 075°31'0 0.0
2018-Apr-17 12:01N 10°19' W 075°31'0 0.0
2018-Apr-17 11:30N 10°19' W 075°31'1 1.1
2018-Apr-17 11:00N 10°19' W 075°31'1 1.1
2018-Apr-17 10:31N 10°19' W 075°31'2 3.1
2018-Apr-17 10:00N 10°20' W 075°31'0 0.0
2018-Apr-17 09:30N 10°20' W 075°31'0 0.4
2018-Apr-17 09:00N 10°21' W 075°31'2 4.4
2018-Apr-17 08:28N 10°23' W 075°31'0 0.0
2018-Apr-17 07:58N 10°23' W 075°31'0 0.0
2018-Apr-17 07:28N 10°23' W 075°31'0 0.0
2018-Apr-17 07:00N 10°23' W 075°31'0 0.0
2018-Apr-17 06:30N 10°23' W 075°31'0 0.0
2018-Apr-17 05:59N 10°23' W 075°31'0 0.0
2018-Apr-17 05:30N 10°23' W 075°31'0 0.0
2018-Apr-17 05:00N 10°23' W 075°31'0 0.0
2018-Apr-17 04:30N 10°23' W 075°31'0 0.0
2018-Apr-17 04:00N 10°23' W 075°31'0 0.0
2018-Apr-17 03:30N 10°23' W 075°31'0 0.0
2018-Apr-17 03:00N 10°23' W 075°31'0 0.0
2018-Apr-17 02:27N 10°23' W 075°31'0 0.0
2018-Apr-17 01:58N 10°23' W 075°31'0 0.0
2018-Apr-17 01:30N 10°23' W 075°31'0 0.0
2018-Apr-17 01:00N 10°23' W 075°31'0 0.0
2018-Apr-17 00:28N 10°23' W 075°31'0 0.0
2018-Apr-17 00:00N 10°23' W 075°31'0 0.0
2018-Apr-16 23:30N 10°23' W 075°31'0 0.0
2018-Apr-16 23:00N 10°23' W 075°31'0 0.0
2018-Apr-16 22:30N 10°23' W 075°31'0 0.0
2018-Apr-16 21:59N 10°23' W 075°31'0 0.0
2018-Apr-16 21:30N 10°23' W 075°31'0 0.0
2018-Apr-16 21:00N 10°23' W 075°31'0 0.0
2018-Apr-16 20:30N 10°23' W 075°31'0 0.0
2018-Apr-16 19:59N 10°23' W 075°31'0 0.3
2018-Apr-16 19:30N 10°23' W 075°31'1 1.9
2018-Apr-16 19:00N 10°22' W 075°32'1 1.8
2018-Apr-16 18:29N 10°23' W 075°31'0 0.0
2018-Apr-16 17:59N 10°23' W 075°31'0 0.3
2018-Apr-16 17:30N 10°23' W 075°31'0 0.3
2018-Apr-16 17:00N 10°23' W 075°31'0 0.0
2018-Apr-16 16:28N 10°23' W 075°31'0 0.0
2018-Apr-16 16:00N 10°23' W 075°31'0 0.0
2018-Apr-16 15:30N 10°23' W 075°31'0 0.0
2018-Apr-16 15:00N 10°23' W 075°31'0 0.0
2018-Apr-16 14:29N 10°23' W 075°31'0 0.0
2018-Apr-16 14:00N 10°23' W 075°31'0 0.0
2018-Apr-16 13:30N 10°23' W 075°31'0 0.0
2018-Apr-16 12:59N 10°23' W 075°31'0 0.0
2018-Apr-16 12:30N 10°23' W 075°31'0 0.0
2018-Apr-16 12:00N 10°23' W 075°31'4 7.5
2018-Apr-16 11:29N 10°19' W 075°31'0 0.0
2018-Apr-16 11:00N 10°19' W 075°31'0 0.8
2018-Apr-16 10:30N 10°19' W 075°31'1 1.6
2018-Apr-16 10:00N 10°20' W 075°31'3 5.9
2018-Apr-16 09:29N 10°23' W 075°31'0 0.0
2018-Apr-16 09:00N 10°23' W 075°31'0 0.0
2018-Apr-16 08:30N 10°23' W 075°31'0 0.0
2018-Apr-16 08:00N 10°23' W 075°31'0 0.0
2018-Apr-16 07:30N 10°23' W 075°31'0 0.0
2018-Apr-16 07:00N 10°23' W 075°31'0 0.0
2018-Apr-16 06:30N 10°23' W 075°31'0 0.4
2018-Apr-16 06:00N 10°23' W 075°31'0 0.0
2018-Apr-16 05:30N 10°23' W 075°31'0 0.0
2018-Apr-16 05:00N 10°23' W 075°31'2 3.8
2018-Apr-16 04:30N 10°24' W 075°32'1 1.7
2018-Apr-16 04:00N 10°24' W 075°31'1 2.1
2018-Apr-16 03:30N 10°23' W 075°32'2 3.3
2018-Apr-16 03:00N 10°23' W 075°31'0 0.4
2018-Apr-16 02:29N 10°23' W 075°31'0 0.5
2018-Apr-16 02:00N 10°23' W 075°31'0 0.0
2018-Apr-16 01:30N 10°23' W 075°31'0 0.0
2018-Apr-16 00:58N 10°23' W 075°31'0 0.0
2018-Apr-16 00:30N 10°23' W 075°31'0 0.0
2018-Apr-15 23:59N 10°23' W 075°31'0 0.1
2018-Apr-15 23:30N 10°23' W 075°31'0 0.0
2018-Apr-15 23:00N 10°23' W 075°31'0 0.5
2018-Apr-15 22:28N 10°23' W 075°31'0 0.5
2018-Apr-15 22:00N 10°23' W 075°31'0 0.0
2018-Apr-15 21:30N 10°23' W 075°31'0 0.0
2018-Apr-15 21:00N 10°23' W 075°31'0 0.0
2018-Apr-15 20:23N 10°23' W 075°31'0 0.0
2018-Apr-15 19:59N 10°23' W 075°31'1 2.0
2018-Apr-15 19:30N 10°22' W 075°31'2 3.2
2018-Apr-15 18:59N 10°21' W 075°31'0 0.2
2018-Apr-15 18:30N 10°21' W 075°31'1 1.4
2018-Apr-15 18:00N 10°20' W 075°31'1 1.5
2018-Apr-15 17:29N 10°21' W 075°31'0 0.3
2018-Apr-15 16:59N 10°21' W 075°31'0 1.0
2018-Apr-15 16:30N 10°20' W 075°31'0 0.0
2018-Apr-15 16:00N 10°20' W 075°31'2 4.7
2018-Apr-15 15:29N 10°22' W 075°31'0 0.8
2018-Apr-15 14:59N 10°23' W 075°31'1 1.1
2018-Apr-15 14:30N 10°23' W 075°31'0 0.0
2018-Apr-15 14:00N 10°23' W 075°31'0 0.0
2018-Apr-15 13:30N 10°23' W 075°31'0 0.0
2018-Apr-15 13:00N 10°23' W 075°31'0 0.0
2018-Apr-15 12:30N 10°23' W 075°31'0 0.0
2018-Apr-15 11:59N 10°23' W 075°31'0 0.3
2018-Apr-15 11:30N 10°23' W 075°31'1 1.2
2018-Apr-15 11:00N 10°22' W 075°31'0 0.4
2018-Apr-15 10:30N 10°23' W 075°31'0 0.0
2018-Apr-15 10:00N 10°23' W 075°31'0 0.0
2018-Apr-15 09:30N 10°23' W 075°31'0 0.0
2018-Apr-15 09:00N 10°23' W 075°31'0 0.0
2018-Apr-15 08:30N 10°23' W 075°31'0 0.0
2018-Apr-15 08:00N 10°23' W 075°31'0 0.0
2018-Apr-15 07:30N 10°23' W 075°31'0 0.0
2018-Apr-15 07:00N 10°23' W 075°31'0 0.0
2018-Apr-15 06:30N 10°23' W 075°31'0 0.0
2018-Apr-15 06:00N 10°23' W 075°31'0 0.0
2018-Apr-15 05:31N 10°23' W 075°31'0 0.0
2018-Apr-15 05:00N 10°23' W 075°31'0 0.0
2018-Apr-15 04:30N 10°23' W 075°31'0 0.0
2018-Apr-15 04:00N 10°23' W 075°31'0 0.0
2018-Apr-15 03:30N 10°23' W 075°31'0 0.0
2018-Apr-15 03:00N 10°23' W 075°31'0 0.0
2018-Apr-15 02:30N 10°23' W 075°31'0 0.0
2018-Apr-15 01:59N 10°23' W 075°31'1 1.9
2018-Apr-15 01:31N 10°22' W 075°31'2 3.0
2018-Apr-15 01:00N 10°20' W 075°31'2 4.7
2018-Apr-15 00:30N 10°23' W 075°31'0 0.7
2018-Apr-15 00:00N 10°23' W 075°31'0 0.0
2018-Apr-14 23:29N 10°23' W 075°31'0 0.0
2018-Apr-14 23:00N 10°23' W 075°31'0 0.0
2018-Apr-14 22:30N 10°23' W 075°31'0 0.0
2018-Apr-14 21:59N 10°23' W 075°31'0 0.0
2018-Apr-14 21:30N 10°23' W 075°31'0 0.0
2018-Apr-14 21:00N 10°23' W 075°31'0 0.0
2018-Apr-14 20:30N 10°23' W 075°31'2 3.6
2018-Apr-14 20:00N 10°24' W 075°32'0 0.6
2018-Apr-14 19:30N 10°24' W 075°32'0 0.6
2018-Apr-14 18:58N 10°24' W 075°32'3 5.1
2018-Apr-14 18:28N 10°22' W 075°31'1 2.9
2018-Apr-14 18:00N 10°21' W 075°31'0 0.0
2018-Apr-14 17:30N 10°21' W 075°31'0 0.0
2018-Apr-14 17:00N 10°21' W 075°31'0 0.8
2018-Apr-14 16:30N 10°20' W 075°31'1 2.0
2018-Apr-14 16:00N 10°21' W 075°31'3 6.8
2018-Apr-14 15:30N 10°24' W 075°33'0 0.0
2018-Apr-14 15:00N 10°24' W 075°33'0 0.0
2018-Apr-14 14:30N 10°24' W 075°33'0 0.0
2018-Apr-14 13:59N 10°24' W 075°33'0 0.0
2018-Apr-14 13:04N 10°24' W 075°33'2 6.0
2018-Apr-14 12:45N 10°23' W 075°32'1 4.9
2018-Apr-14 12:30N 10°23' W 075°31'0 0.2
2018-Apr-14 12:00N 10°22' W 075°31'0 1.0
2018-Apr-14 11:31N 10°23' W 075°31'0 0.0
2018-Apr-14 11:00N 10°23' W 075°31'0 0.0
2018-Apr-14 10:30N 10°23' W 075°31'0 0.0
2018-Apr-14 10:00N 10°23' W 075°31'0 0.7
2018-Apr-14 09:30N 10°23' W 075°31'1 1.4
2018-Apr-14 09:00N 10°22' W 075°31'2 4.0
2018-Apr-14 08:30N 10°24' W 075°32'0 0.6
2018-Apr-14 07:59N 10°24' W 075°32'0 0.0
2018-Apr-14 07:30N 10°24' W 075°32'0 0.0
2018-Apr-14 07:00N 10°24' W 075°32'0 0.0
2018-Apr-14 06:30N 10°24' W 075°32'0 0.0
2018-Apr-14 05:59N 10°24' W 075°32'0 0.4
2018-Apr-14 05:30N 10°24' W 075°32'0 0.6
2018-Apr-14 05:00N 10°24' W 075°32'0 0.8
2018-Apr-14 04:30N 10°24' W 075°33'0 0.0
2018-Apr-14 04:00N 10°24' W 075°33'0 0.0
2018-Apr-14 03:30N 10°24' W 075°33'0 0.0
2018-Apr-14 03:00N 10°24' W 075°33'0 0.0
2018-Apr-14 02:31N 10°24' W 075°33'0 0.0
2018-Apr-14 01:59N 10°24' W 075°33'0 0.0
2018-Apr-14 01:30N 10°24' W 075°33'0 0.0
2018-Apr-14 01:00N 10°24' W 075°33'0 0.0
2018-Apr-14 00:30N 10°24' W 075°33'1 0.2
2018-Apr-13 21:07N 10°24' W 075°32'0 1.4
2018-Apr-13 20:59N 10°24' W 075°32'1 0.0
2018-Apr-13 08:43N 10°24' W 075°33'0 0.0
2018-Apr-13 08:30N 10°24' W 075°33'0 0.0
2018-Apr-13 08:00N 10°24' W 075°33'0 0.0
2018-Apr-13 07:30N 10°24' W 075°33'0 0.0
2018-Apr-13 07:00N 10°24' W 075°33'0 0.0
2018-Apr-13 06:29N 10°24' W 075°33'0 0.0
2018-Apr-13 06:00N 10°24' W 075°33'1 0.0
2018-Apr-11 18:05N 10°24' W 075°32'0 0.7
2018-Apr-11 17:39N 10°24' W 075°32'1 0.3
2018-Apr-11 14:29N 10°24' W 075°33'1 0.7
2018-Apr-11 13:36N 10°24' W 075°32'0 0.0
2018-Apr-11 13:05N 10°24' W 075°32'0 0.0
2018-Apr-11 13:00N 10°24' W 075°32'0 0.0
2018-Apr-11 12:30N 10°24' W 075°32'0 0.0
2018-Apr-11 11:59N 10°24' W 075°32'0 0.9
2018-Apr-11 11:29N 10°24' W 075°32'2 4.0
2018-Apr-11 11:00N 10°23' W 075°31'1 1.1
2018-Apr-11 10:30N 10°22' W 075°31'1 1.3
2018-Apr-11 10:00N 10°23' W 075°31'0 0.0
2018-Apr-11 09:19N 10°23' W 075°31'0 0.1
2018-Apr-11 08:59N 10°23' W 075°31'0 0.0
2018-Apr-11 08:31N 10°23' W 075°31'0 0.0
2018-Apr-11 07:58N 10°23' W 075°31'0 0.0
2018-Apr-11 07:30N 10°23' W 075°31'3 5.6
2018-Apr-11 07:01N 10°20' W 075°31'1 2.7
2018-Apr-11 06:30N 10°19' W 075°31'0 0.5
2018-Apr-11 06:00N 10°19' W 075°31'0 0.0
2018-Apr-11 05:20N 10°19' W 075°31'0 0.0
2018-Apr-11 05:00N 10°19' W 075°31'0 0.5
2018-Apr-11 04:30N 10°19' W 075°31'0 0.0
2018-Apr-11 04:01N 10°19' W 075°31'0 0.0
2018-Apr-11 03:30N 10°19' W 075°31'0 0.9
2018-Apr-11 03:00N 10°19' W 075°31'0 0.1
2018-Apr-11 02:30N 10°19' W 075°31'2 3.8
2018-Apr-11 02:00N 10°21' W 075°31'2 3.9
2018-Apr-11 01:30N 10°23' W 075°31'0 0.6
2018-Apr-11 00:58N 10°23' W 075°31'0 0.7
2018-Apr-11 00:30N 10°23' W 075°31'0 0.0
2018-Apr-10 23:59N 10°23' W 075°31'0 0.1
2018-Apr-10 23:29N 10°23' W 075°31'0 0.0
2018-Apr-10 22:59N 10°23' W 075°31'0 0.0
2018-Apr-10 22:29N 10°23' W 075°31'0 0.0
2018-Apr-10 22:00N 10°23' W 075°31'0 0.0
2018-Apr-10 21:30N 10°23' W 075°31'0 0.0
2018-Apr-10 20:59N 10°23' W 075°31'0 0.0
2018-Apr-10 20:30N 10°23' W 075°31'0 0.0
2018-Apr-10 19:59N 10°23' W 075°31'0 0.0
2018-Apr-10 19:30N 10°23' W 075°31'0 0.0
2018-Apr-10 19:00N 10°23' W 075°31'0 0.0
2018-Apr-10 18:28N 10°23' W 075°31'0 0.0
2018-Apr-10 17:59N 10°23' W 075°31'0 0.0
2018-Apr-10 17:30N 10°23' W 075°31'0 0.0
2018-Apr-10 17:00N 10°23' W 075°31'0 0.0
2018-Apr-10 16:30N 10°23' W 075°31'0 0.0
2018-Apr-10 16:00N 10°23' W 075°31'0 0.0
2018-Apr-10 15:29N 10°23' W 075°31'0 0.0
2018-Apr-10 15:00N 10°23' W 075°31'0 0.0
2018-Apr-10 14:30N 10°23' W 075°31'0 0.5
2018-Apr-10 13:59N 10°23' W 075°31'1 1.6
2018-Apr-10 13:30N 10°23' W 075°32'1 2.7
2018-Apr-10 12:59N 10°21' W 075°32'4 7.5
2018-Apr-10 12:28N 10°18' W 075°33'1 1.8
2018-Apr-10 12:00N 10°17' W 075°34'0 0.4
2018-Apr-10 11:30N 10°17' W 075°33'1 2.9
2018-Apr-10 11:00N 10°18' W 075°33'2 4.2
2018-Apr-10 10:30N 10°19' W 075°35'2 4.0
2018-Apr-10 09:59N 10°19' W 075°33'1 2.8
2018-Apr-10 09:29N 10°20' W 075°32'4 7.7
2018-Apr-10 09:00N 10°24' W 075°32'1 1.6
2018-Apr-10 08:30N 10°24' W 075°32'0 0.0
2018-Apr-10 08:00N 10°24' W 075°32'0 0.0
2018-Apr-10 07:30N 10°24' W 075°32'0 0.0
2018-Apr-10 07:00N 10°24' W 075°32'4 7.5
2018-Apr-10 06:30N 10°21' W 075°31'0 0.2
2018-Apr-10 06:00N 10°21' W 075°31'2 4.7
2018-Apr-10 05:30N 10°23' W 075°31'0 0.0
2018-Apr-10 05:00N 10°23' W 075°31'0 0.0
2018-Apr-10 04:30N 10°23' W 075°31'0 0.0
2018-Apr-10 04:00N 10°23' W 075°31'0 0.0
2018-Apr-10 03:29N 10°23' W 075°31'0 0.0
2018-Apr-10 02:58N 10°23' W 075°31'0 0.0
2018-Apr-10 02:28N 10°23' W 075°31'0 0.0
2018-Apr-10 02:00N 10°23' W 075°31'0 0.0
2018-Apr-10 01:30N 10°23' W 075°31'0 0.0
2018-Apr-10 01:00N 10°23' W 075°31'0 0.0
2018-Apr-10 00:30N 10°23' W 075°31'0 0.0
2018-Apr-10 00:00N 10°23' W 075°31'0 0.0
2018-Apr-09 23:30N 10°23' W 075°31'0 0.0
2018-Apr-09 23:00N 10°23' W 075°31'0 0.0
2018-Apr-09 22:30N 10°23' W 075°31'0 0.0
2018-Apr-09 22:00N 10°23' W 075°31'0 0.0
2018-Apr-09 21:28N 10°23' W 075°31'0 0.0
2018-Apr-09 21:00N 10°23' W 075°31'0 0.0
2018-Apr-09 20:29N 10°23' W 075°31'0 0.0
2018-Apr-09 19:59N 10°23' W 075°31'0 0.0
2018-Apr-09 19:29N 10°23' W 075°31'0 1.0
2018-Apr-09 19:00N 10°22' W 075°31'1 1.5
2018-Apr-09 18:30N 10°22' W 075°31'0 0.2
2018-Apr-09 18:00N 10°23' W 075°31'0 0.1
2018-Apr-09 17:30N 10°23' W 075°31'1 1.4
2018-Apr-09 17:00N 10°22' W 075°31'0 0.0
2018-Apr-09 16:30N 10°22' W 075°31'0 0.0
2018-Apr-09 16:00N 10°22' W 075°31'1 2.3
2018-Apr-09 15:29N 10°23' W 075°32'2 3.6
2018-Apr-09 15:00N 10°24' W 075°32'0 0.0
2018-Apr-09 14:30N 10°24' W 075°32'0 0.4
2018-Apr-09 14:00N 10°24' W 075°32'2 3.5
2018-Apr-09 13:30N 10°23' W 075°32'1 2.0
2018-Apr-09 12:59N 10°23' W 075°31'0 0.0
2018-Apr-09 12:30N 10°23' W 075°31'0 0.0
2018-Apr-09 12:00N 10°23' W 075°31'0 0.0
2018-Apr-09 11:30N 10°23' W 075°31'0 0.0
2018-Apr-09 11:00N 10°23' W 075°31'0 0.0
2018-Apr-09 10:29N 10°23' W 075°31'0 0.0
2018-Apr-09 09:59N 10°23' W 075°31'0 0.0
2018-Apr-09 09:30N 10°23' W 075°31'0 0.0
2018-Apr-09 09:00N 10°23' W 075°31'0 0.0
2018-Apr-09 08:29N 10°23' W 075°31'0 0.0
2018-Apr-09 08:00N 10°23' W 075°31'0 0.0
2018-Apr-09 07:30N 10°23' W 075°31'0 0.0
2018-Apr-09 07:00N 10°23' W 075°31'0 0.0
2018-Apr-09 06:30N 10°23' W 075°31'2 3.8
2018-Apr-09 06:00N 10°21' W 075°31'1 1.4
2018-Apr-09 05:30N 10°21' W 075°31'0 0.6
2018-Apr-09 05:00N 10°20' W 075°31'0 0.3
2018-Apr-09 04:10N 10°20' W 075°31'0 0.0
2018-Apr-09 04:00N 10°20' W 075°31'0 0.0
2018-Apr-09 03:30N 10°20' W 075°31'0 0.0
2018-Apr-09 03:00N 10°20' W 075°31'0 0.0
2018-Apr-09 02:30N 10°20' W 075°31'2 3.8
2018-Apr-09 02:00N 10°18' W 075°31'0 0.0
2018-Apr-09 01:30N 10°18' W 075°31'1 1.5
2018-Apr-09 00:59N 10°19' W 075°31'4 7.8
2018-Apr-09 00:29N 10°23' W 075°31'  

Dump ship's entire track history